TimeMST,TemperatureF,Dew PointF,Humidity,Sea Level PressureIn,VisibilityMPH,Wind Direction,Wind SpeedMPH,Gust SpeedMPH,PrecipitationIn,Events,Conditions,WindDirDegrees,DateUTC
12:54 AM,35.1,28.9,78,30.24,10.0,SSW,3.5,-,N/A,,Clear,200,2012-11-20 07:54:00
1:54 AM,32.0,28.0,85,30.25,10.0,SSW,4.6,-,N/A,,Clear,200,2012-11-20 08:54:00
2:54 AM,32.0,28.0,85,30.25,10.0,WSW,11.5,-,N/A,,Clear,240,2012-11-20 09:54:00
3:54 AM,30.9,27.0,85,30.25,10.0,WSW,5.8,-,N/A,,Clear,240,2012-11-20 10:54:00
4:54 AM,30.9,26.1,82,30.28,10.0,SW,5.8,-,N/A,,Clear,220,2012-11-20 11:54:00
5:54 AM,32.0,26.1,79,30.29,10.0,Calm,Calm,-,N/A,,Clear,0,2012-11-20 12:54:00
6:54 AM,33.1,26.1,75,30.30,10.0,Calm,Calm,-,N/A,,Clear,0,2012-11-20 13:54:00
7:54 AM,34.0,27.0,75,30.31,10.0,NNE,4.6,-,N/A,,Clear,20,2012-11-20 14:54:00
8:54 AM,36.0,30.0,79,30.30,10.0,Calm,Calm,-,N/A,,Clear,0,2012-11-20 15:54:00
9:54 AM,39.9,27.0,60,30.26,10.0,Calm,Calm,-,N/A,,Clear,0,2012-11-20 16:54:00
10:54 AM,42.1,30.9,65,30.25,10.0,NNE,3.5,-,N/A,,Clear,20,2012-11-20 17:54:00
11:54 AM,46.0,30.9,56,30.21,10.0,NNE,3.5,-,N/A,,Clear,20,2012-11-20 18:54:00
12:54 PM,51.1,28.0,41,30.15,10.0,SE,4.6,-,N/A,,Clear,140,2012-11-20 19:54:00
1:54 PM,51.1,27.0,39,30.13,10.0,SE,4.6,-,N/A,,Clear,140,2012-11-20 20:54:00
2:54 PM,53.1,27.0,37,30.10,10.0,SE,4.6,-,N/A,,Clear,130,2012-11-20 21:54:00
3:54 PM,51.1,28.9,43,30.11,10.0,SSE,9.2,-,N/A,,Clear,160,2012-11-20 22:54:00
4:54 PM,44.1,28.0,53,30.14,10.0,SSW,6.9,-,N/A,,Clear,200,2012-11-20 23:54:00
5:54 PM,42.1,27.0,55,30.15,10.0,South,8.1,-,N/A,,Clear,170,2012-11-21 00:54:00
6:54 PM,41.0,26.1,55,30.14,10.0,South,6.9,-,N/A,,Clear,170,2012-11-21 01:54:00
7:54 PM,41.0,25.0,53,30.14,10.0,SSW,3.5,-,N/A,,Clear,210,2012-11-21 02:54:00
8:54 PM,39.0,26.1,60,30.12,10.0,South,6.9,-,N/A,,Clear,170,2012-11-21 03:54:00
9:54 PM,41.0,25.0,53,30.08,10.0,SSE,5.8,-,N/A,,Clear,160,2012-11-21 04:54:00
10:54 PM,39.0,25.0,57,30.08,10.0,South,3.5,-,N/A,,Clear,170,2012-11-21 05:54:00
11:54 PM,37.0,26.1,65,30.06,10.0,SSE,5.8,-,N/A,,Clear,150,2012-11-21 06:54:00